Terminal Aerodrome Forecast
Issued by NWS

Home | Current Version | Previous Version | Text Only | Print | Product List | Glossary On
Versions: 1 2 3 4 5 6 7 8 9 10 11 12 13 14 15 16 17 18 19 20 21 22 23 24 25
154
FTUS43 KMPX 240704 AAA
TAFRNH
TAF AMD
KRNH 240704Z 2407/2506 16004KT P6SM OVC009
     FM240800 16004KT P6SM VCSH OVC007
      TEMPO 2408/2410 2SM TSRA OVC005CB
     FM241000 23005KT P6SM VCSH BKN009
     FM241200 28007KT P6SM BKN015 OVC250
     FM241500 29010G17KT P6SM SCT030 BKN250
     FM250100 29006KT P6SM FEW250=

USA.gov is the U.S. government's official web portal to all federal, state and local government web resources and services.